Time;durP1;ratioP1;P1;durP2;ratioP2;P2;SDS_P1;SDS_P2;PMS_P1;PMS_P2;Temp;Humidity;BMP_temperature;BMP_pressure;BME280_temperature;BME280_humidity;BME280_pressure;Samples;Min_cycle;Max_cycle;Signal;HPM_P1;HPM_P2
2021/10/17 00:02:30;;;;;;;35.10;24.70;;;;;;;;;;6234282;28;20630;-68
2021/10/17 00:05:32;;;;;;;36.03;23.58;;;;;;;;;;6237134;28;20159;-68
2021/10/17 00:08:35;;;;;;;34.95;23.55;;;;;;;;;;6251406;28;20048;-67
2021/10/17 00:11:37;;;;;;;37.63;26.57;;;;;;;;;;6239830;28;20099;-67
2021/10/17 00:14:39;;;;;;;36.45;24.63;;;;;;;;;;6248111;28;20561;-67
2021/10/17 00:17:40;;;;;;;35.40;24.80;;;;;;;;;;6233201;28;20056;-69
2021/10/17 00:20:42;;;;;;;139.85;79.22;;;;;;;;;;6237502;28;20223;-70
2021/10/17 00:23:45;;;;;;;217.90;119.70;;;;;;;;;;6248158;28;20056;-67
2021/10/17 00:26:47;;;;;;;107.43;59.13;;;;;;;;;;6240446;28;20075;-70
2021/10/17 00:29:48;;;;;;;100.93;55.30;;;;;;;;;;6249602;28;20075;-70
2021/10/17 00:32:49;;;;;;;98.13;56.00;;;;;;;;;;6242570;28;20102;-69
2021/10/17 00:35:52;;;;;;;50.83;32.63;;;;;;;;;;6231656;28;20436;-67
2021/10/17 00:38:55;;;;;;;35.92;24.23;;;;;;;;;;6250464;28;20050;-66
2021/10/17 00:41:57;;;;;;;35.87;24.07;;;;;;;;;;6237099;28;20534;-66
2021/10/17 00:44:58;;;;;;;35.33;24.42;;;;;;;;;;6250423;28;20713;-66
2021/10/17 00:48:01;;;;;;;33.97;23.95;;;;;;;;;;6229211;28;20058;-67
2021/10/17 00:51:02;;;;;;;35.38;22.98;;;;;;;;;;6237280;28;20108;-67
2021/10/17 00:54:05;;;;;;;34.22;23.00;;;;;;;;;;6245713;28;20496;-67
2021/10/17 00:57:06;;;;;;;31.48;23.08;;;;;;;;;;6237476;28;20219;-67
2021/10/17 01:00:08;;;;;;;31.25;22.67;;;;;;;;;;6246944;28;20140;-68
2021/10/17 01:03:10;;;;;;;31.67;22.75;;;;;;;;;;6237032;28;20137;-66
2021/10/17 01:06:13;;;;;;;33.22;22.98;;;;;;;;;;6232811;28;20128;-66
2021/10/17 01:09:16;;;;;;;34.33;22.57;;;;;;;;;;6247979;28;20065;-67
2021/10/17 01:12:17;;;;;;;34.63;23.02;;;;;;;;;;6235171;28;20124;-66
2021/10/17 01:15:18;;;;;;;32.15;22.88;;;;;;;;;;6237728;28;20049;-67
2021/10/17 01:18:20;;;;;;;36.95;23.70;;;;;;;;;;6236607;28;20052;-67
2021/10/17 01:21:24;;;;;;;34.90;23.10;;;;;;;;;;6235953;28;20477;-66
2021/10/17 01:24:25;;;;;;;35.67;23.75;;;;;;;;;;6241263;28;20397;-67
2021/10/17 01:27:26;;;;;;;34.88;23.15;;;;;;;;;;6240581;28;20099;-66
2021/10/17 01:30:31;;;;;;;34.97;22.92;;;;;;;;;;6236406;28;20037;-66
2021/10/17 01:33:32;;;;;;;;;;;;;;;;;;6237945;28;20049;-66
2021/10/17 01:36:38;;;;;;;32.30;22.98;;;;;;;;;;6233429;28;19970;-65
2021/10/17 01:39:39;;;;;;;34.75;24.45;;;;;;;;;;6244384;28;20041;-67
2021/10/17 01:42:41;;;;;;;37.85;24.30;;;;;;;;;;6240260;28;20120;-66
2021/10/17 01:45:43;;;;;;;35.42;23.60;;;;;;;;;;6232008;28;20432;-67
2021/10/17 01:48:44;;;;;;;35.60;25.15;;;;;;;;;;6241784;28;20033;-66
2021/10/17 01:51:47;;;;;;;32.17;22.90;;;;;;;;;;6237535;28;20106;-66
2021/10/17 01:54:48;;;;;;;33.90;24.08;;;;;;;;;;6244258;28;20521;-66
2021/10/17 01:57:49;;;;;;;34.45;23.58;;;;;;;;;;6234192;28;20138;-66
2021/10/17 02:00:51;;;;;;;37.50;24.63;;;;;;;;;;6232581;28;20079;-66
2021/10/17 02:03:52;;;;;;;33.50;23.20;;;;;;;;;;6239851;28;20049;-66
2021/10/17 02:06:55;;;;;;;33.50;23.48;;;;;;;;;;6237030;28;20381;-67
2021/10/17 02:09:56;;;;;;;37.25;24.33;;;;;;;;;;6246438;28;20082;-66
2021/10/17 02:12:58;;;;;;;37.78;24.17;;;;;;;;;;6241103;28;20102;-66
2021/10/17 02:15:59;;;;;;;36.78;24.40;;;;;;;;;;6236956;28;20041;-66
2021/10/17 02:19:01;;;;;;;37.70;24.02;;;;;;;;;;6242711;28;20514;-66
2021/10/17 02:22:04;;;;;;;35.75;24.38;;;;;;;;;;6235519;28;20929;-65
2021/10/17 02:25:05;;;;;;;33.45;23.42;;;;;;;;;;6247536;28;20045;-68
2021/10/17 02:28:07;;;;;;;39.13;23.77;;;;;;;;;;6239670;28;20049;-67
2021/10/17 02:31:08;;;;;;;39.22;25.10;;;;;;;;;;6230784;28;20502;-66
2021/10/17 02:34:09;;;;;;;35.95;23.67;;;;;;;;;;6241227;28;20075;-67
2021/10/17 02:37:12;;;;;;;35.35;23.27;;;;;;;;;;6236443;28;20051;-66
2021/10/17 02:40:13;;;;;;;38.00;24.77;;;;;;;;;;6236656;28;20067;-67
2021/10/17 02:43:15;;;;;;;34.75;24.05;;;;;;;;;;6243980;28;20042;-66
2021/10/17 02:46:16;;;;;;;35.80;24.77;;;;;;;;;;6229841;28;20073;-66
2021/10/17 02:49:18;;;;;;;37.42;24.45;;;;;;;;;;6243016;28;20059;-66
2021/10/17 02:52:21;;;;;;;41.72;25.55;;;;;;;;;;6233482;28;20102;-66
2021/10/17 02:55:22;;;;;;;35.20;23.77;;;;;;;;;;6236552;28;20068;-67
2021/10/17 02:58:23;;;;;;;36.53;25.13;;;;;;;;;;6242935;28;20037;-66
2021/10/17 03:01:25;;;;;;;35.30;24.30;;;;;;;;;;6232809;28;20053;-66
2021/10/17 03:04:26;;;;;;;39.63;24.08;;;;;;;;;;6243632;28;20094;-66
2021/10/17 03:07:29;;;;;;;33.20;22.63;;;;;;;;;;6235586;28;20041;-66
2021/10/17 03:10:31;;;;;;;34.72;23.33;;;;;;;;;;6239915;28;20044;-67
2021/10/17 03:13:32;;;;;;;35.38;24.08;;;;;;;;;;6252168;28;20049;-66
2021/10/17 03:16:33;;;;;;;38.22;24.58;;;;;;;;;;6230250;28;20130;-66
2021/10/17 03:19:35;;;;;;;35.58;24.58;;;;;;;;;;6249118;28;20187;-66
2021/10/17 03:22:38;;;;;;;34.75;24.00;;;;;;;;;;6240229;28;20148;-67
2021/10/17 03:25:39;;;;;;;38.65;25.02;;;;;;;;;;6242718;28;20050;-66
2021/10/17 03:28:40;;;;;;;37.58;24.67;;;;;;;;;;6249579;28;20079;-66
2021/10/17 03:31:43;;;;;;;39.03;26.33;;;;;;;;;;6247428;28;20051;-65
2021/10/17 03:34:44;;;;;;;39.80;25.80;;;;;;;;;;6245975;28;20398;-68
2021/10/17 03:37:47;;;;;;;44.60;27.13;;;;;;;;;;6236733;28;20118;-68
2021/10/17 03:40:48;;;;;;;41.47;26.67;;;;;;;;;;6238679;28;20049;-68
2021/10/17 03:43:49;;;;;;;38.90;26.55;;;;;;;;;;6251001;28;20045;-69
2021/10/17 03:46:51;;;;;;;42.45;27.70;;;;;;;;;;6231941;28;20051;-68
2021/10/17 03:49:52;;;;;;;41.60;26.10;;;;;;;;;;6245705;28;20045;-68
2021/10/17 03:52:55;;;;;;;41.55;25.33;;;;;;;;;;6235807;28;20512;-68
2021/10/17 03:55:56;;;;;;;40.95;26.60;;;;;;;;;;6237888;28;20049;-68
2021/10/17 03:58:58;;;;;;;42.22;26.83;;;;;;;;;;6249283;28;20045;-68
2021/10/17 04:01:59;;;;;;;43.72;26.95;;;;;;;;;;6229698;28;20128;-68
2021/10/17 04:05:00;;;;;;;43.35;26.27;;;;;;;;;;6248323;28;20396;-68
2021/10/17 04:08:04;;;;;;;39.22;26.58;;;;;;;;;;6235493;28;20057;-67
2021/10/17 04:11:05;;;;;;;40.50;27.13;;;;;;;;;;6234525;28;20112;-68
2021/10/17 04:14:07;;;;;;;42.20;27.10;;;;;;;;;;6250505;28;20488;-66
2021/10/17 04:17:08;;;;;;;40.47;26.60;;;;;;;;;;6232989;28;20052;-68
2021/10/17 04:20:10;;;;;;;43.80;26.95;;;;;;;;;;6239233;28;20163;-68
2021/10/17 04:23:13;;;;;;;40.33;26.90;;;;;;;;;;6242403;28;20057;-67
2021/10/17 04:26:14;;;;;;;39.42;26.90;;;;;;;;;;6236688;28;20059;-68
2021/10/17 04:29:16;;;;;;;41.55;27.27;;;;;;;;;;6256353;28;20158;-67
2021/10/17 04:32:17;;;;;;;37.30;25.42;;;;;;;;;;6235390;28;20102;-66
2021/10/17 04:35:19;;;;;;;41.10;25.00;;;;;;;;;;6248358;28;20055;-66
2021/10/17 04:38:21;;;;;;;36.95;24.83;;;;;;;;;;6243515;28;20079;-66
2021/10/17 04:41:23;;;;;;;31.75;22.48;;;;;;;;;;6239558;28;20049;-66
2021/10/17 04:44:24;;;;;;;34.97;22.73;;;;;;;;;;6249273;28;20049;-66
2021/10/17 04:47:26;;;;;;;34.92;21.95;;;;;;;;;;6225040;28;20612;-68
2021/10/17 04:50:27;;;;;;;34.08;22.27;;;;;;;;;;6236241;28;20619;-69
2021/10/17 04:53:30;;;;;;;31.83;21.20;;;;;;;;;;6247429;28;20049;-65
2021/10/17 04:56:32;;;;;;;30.83;21.95;;;;;;;;;;6238461;28;20099;-68
2021/10/17 04:59:34;;;;;;;37.30;22.95;;;;;;;;;;6248682;28;20060;-68
2021/10/17 05:02:35;;;;;;;38.58;23.17;;;;;;;;;;6230152;28;20084;-65
2021/10/17 05:05:36;;;;;;;37.47;24.95;;;;;;;;;;6234836;28;20144;-68
2021/10/17 05:08:39;;;;;;;38.08;25.50;;;;;;;;;;6249902;28;20136;-68
2021/10/17 05:11:41;;;;;;;37.70;25.98;;;;;;;;;;6235645;28;20559;-68
2021/10/17 05:14:42;;;;;;;40.90;26.13;;;;;;;;;;6244205;28;20347;-69
2021/10/17 05:17:43;;;;;;;41.55;25.40;;;;;;;;;;6232169;28;20064;-68
2021/10/17 05:20:45;;;;;;;37.55;26.30;;;;;;;;;;6239353;28;20045;-66
2021/10/17 05:23:48;;;;;;;39.30;26.60;;;;;;;;;;6248780;28;20128;-67
2021/10/17 05:26:49;;;;;;;40.13;26.52;;;;;;;;;;6235648;28;20051;-68
2021/10/17 05:29:50;;;;;;;44.08;26.00;;;;;;;;;;6247853;28;20210;-68
2021/10/17 05:32:52;;;;;;;43.67;26.67;;;;;;;;;;6231544;28;20505;-68
2021/10/17 05:35:53;;;;;;;57.60;28.30;;;;;;;;;;6242402;28;20400;-68
2021/10/17 05:38:56;;;;;;;45.75;25.60;;;;;;;;;;6249346;28;20044;-67
2021/10/17 05:41:57;;;;;;;53.08;27.42;;;;;;;;;;6248480;28;20037;-68
2021/10/17 05:44:59;;;;;;;45.15;26.63;;;;;;;;;;6256459;28;20122;-68
2021/10/17 05:48:00;;;;;;;41.10;26.75;;;;;;;;;;6241507;28;20071;-67
2021/10/17 05:51:01;;;;;;;38.78;25.83;;;;;;;;;;6245671;28;20147;-67
2021/10/17 05:54:04;;;;;;;41.90;25.98;;;;;;;;;;6251425;28;20275;-68
2021/10/17 05:57:06;;;;;;;44.67;27.02;;;;;;;;;;6240007;28;20061;-66
2021/10/17 06:00:08;;;;;;;40.70;26.40;;;;;;;;;;6242418;28;20065;-67
2021/10/17 06:03:10;;;;;;;43.22;26.38;;;;;;;;;;6234001;28;21539;-68
2021/10/17 06:06:13;;;;;;;42.45;27.23;;;;;;;;;;6231116;28;20494;-65
2021/10/17 06:09:16;;;;;;;41.75;25.98;;;;;;;;;;6244283;28;20540;-66
2021/10/17 06:12:17;;;;;;;41.95;25.42;;;;;;;;;;6238620;28;20046;-66
2021/10/17 06:15:18;;;;;;;40.25;25.77;;;;;;;;;;6237256;28;20132;-65
2021/10/17 06:18:20;;;;;;;48.25;25.70;;;;;;;;;;6241289;28;20402;-65
2021/10/17 06:21:21;;;;;;;41.53;24.83;;;;;;;;;;6234484;28;20049;-65
2021/10/17 06:24:24;;;;;;;42.78;24.60;;;;;;;;;;6249527;28;20074;-64
2021/10/17 06:27:25;;;;;;;38.35;23.40;;;;;;;;;;6235732;28;20060;-65
2021/10/17 06:30:27;;;;;;;33.05;23.90;;;;;;;;;;6237001;28;20179;-65
2021/10/17 06:33:28;;;;;;;36.20;24.08;;;;;;;;;;6235815;28;20129;-65
2021/10/17 06:36:29;;;;;;;33.00;23.42;;;;;;;;;;6236461;28;20049;-65
2021/10/17 06:39:32;;;;;;;34.95;23.33;;;;;;;;;;6242252;28;20385;-66
2021/10/17 06:42:34;;;;;;;40.20;23.83;;;;;;;;;;6236790;28;20055;-66
2021/10/17 06:45:35;;;;;;;33.05;23.05;;;;;;;;;;6235035;28;20803;-66
2021/10/17 06:48:36;;;;;;;33.58;23.48;;;;;;;;;;6238350;28;20102;-66
2021/10/17 06:51:39;;;;;;;35.25;23.55;;;;;;;;;;6238734;28;20056;-67
2021/10/17 06:54:42;;;;;;;33.72;23.27;;;;;;;;;;6243485;28;20065;-66
2021/10/17 06:57:43;;;;;;;34.45;23.25;;;;;;;;;;6234098;28;20548;-65
2021/10/17 07:00:45;;;;;;;31.77;23.55;;;;;;;;;;6233860;28;20076;-65
2021/10/17 07:03:46;;;;;;;33.92;23.67;;;;;;;;;;6238391;28;20203;-65
2021/10/17 07:06:48;;;;;;;33.65;23.10;;;;;;;;;;6233490;28;20068;-64
2021/10/17 07:09:51;;;;;;;31.90;23.15;;;;;;;;;;6245774;28;20060;-65
2021/10/17 07:12:52;;;;;;;32.83;23.80;;;;;;;;;;6235854;28;20128;-66
2021/10/17 07:15:54;;;;;;;38.42;24.10;;;;;;;;;;6229129;28;20683;-65
2021/10/17 07:18:55;;;;;;;34.65;24.73;;;;;;;;;;6241036;28;20037;-65
2021/10/17 07:21:56;;;;;;;34.38;24.45;;;;;;;;;;6226448;28;20058;-66
2021/10/17 07:24:59;;;;;;;34.83;25.02;;;;;;;;;;6263256;28;20523;-64
2021/10/17 07:28:00;;;;;;;37.67;24.77;;;;;;;;;;6235287;28;20048;-65
2021/10/17 07:31:02;;;;;;;34.65;25.17;;;;;;;;;;6232596;28;20756;-67
2021/10/17 07:34:03;;;;;;;35.55;26.27;;;;;;;;;;6240715;28;20049;-64
2021/10/17 07:37:05;;;;;;;36.00;25.48;;;;;;;;;;6237304;28;20072;-65
2021/10/17 07:40:08;;;;;;;33.58;24.27;;;;;;;;;;6245181;28;20049;-67
2021/10/17 07:43:09;;;;;;;33.88;25.35;;;;;;;;;;6237996;28;20103;-65
2021/10/17 07:46:11;;;;;;;34.92;25.08;;;;;;;;;;6228175;28;20141;-66
2021/10/17 07:49:12;;;;;;;33.17;25.55;;;;;;;;;;6239984;28;20087;-65
2021/10/17 07:52:13;;;;;;;34.90;26.52;;;;;;;;;;6239364;28;20045;-65
2021/10/17 07:55:16;;;;;;;37.05;27.08;;;;;;;;;;6238329;28;20537;-66
2021/10/17 07:58:18;;;;;;;37.42;27.27;;;;;;;;;;6250215;28;20034;-65
2021/10/17 08:01:19;;;;;;;37.47;28.27;;;;;;;;;;6236983;28;20057;-66
2021/10/17 08:04:21;;;;;;;41.47;27.63;;;;;;;;;;6242607;28;20133;-65
2021/10/17 08:07:22;;;;;;;39.90;28.10;;;;;;;;;;6234525;28;20049;-67
2021/10/17 08:10:25;;;;;;;34.47;26.55;;;;;;;;;;6236833;28;20065;-65
2021/10/17 08:13:26;;;;;;;36.28;27.02;;;;;;;;;;6246245;28;20042;-65
2021/10/17 08:16:28;;;;;;;35.78;27.05;;;;;;;;;;6236205;28;20040;-64
2021/10/17 08:19:29;;;;;;;36.97;26.83;;;;;;;;;;6247754;28;20129;-65
2021/10/17 08:22:32;;;;;;;38.40;28.77;;;;;;;;;;6234344;28;20167;-66
2021/10/17 08:25:38;;;;;;;33.03;27.35;;;;;;;;;;6231323;28;20049;-67
2021/10/17 08:28:39;;;;;;;35.25;27.70;;;;;;;;;;6255590;28;20057;-66
2021/10/17 08:31:40;;;;;;;32.47;26.58;;;;;;;;;;6243140;28;20191;-66
2021/10/17 08:34:42;;;;;;;34.75;26.45;;;;;;;;;;6260661;28;20049;-66
2021/10/17 08:37:43;;;;;;;34.83;26.83;;;;;;;;;;6244796;28;20128;-65
2021/10/17 08:40:48;;;;;;;34.65;26.30;;;;;;;;;;6237438;28;20179;-66
2021/10/17 08:43:50;;;;;;;36.65;27.80;;;;;;;;;;6247343;28;20057;-66
2021/10/17 08:46:52;;;;;;;35.15;27.45;;;;;;;;;;6229496;28;20069;-66
2021/10/17 08:49:54;;;;;;;33.97;26.33;;;;;;;;;;6244339;28;20060;-65
2021/10/17 08:52:55;;;;;;;32.50;26.75;;;;;;;;;;6242680;28;20132;-66
2021/10/17 08:55:58;;;;;;;32.70;26.00;;;;;;;;;;6243802;28;20052;-65
2021/10/17 08:58:59;;;;;;;33.80;26.50;;;;;;;;;;6246559;28;20734;-66
2021/10/17 09:02:11;;;;;;;31.65;26.10;;;;;;;;;;6229688;28;20493;-66
2021/10/17 09:05:12;;;;;;;32.25;26.48;;;;;;;;;;6238945;28;20053;-66
2021/10/17 09:08:15;;;;;;;31.00;25.88;;;;;;;;;;6239476;28;20041;-66
2021/10/17 09:11:34;;;;;;;31.20;25.38;;;;;;;;;;6236792;28;20109;-66
2021/10/17 09:14:37;;;;;;;28.73;22.45;;;;;;;;;;6243789;28;20219;-66
2021/10/17 09:17:38;;;;;;;31.47;23.07;;;;;;;;;;6231838;28;20131;-66
2021/10/17 09:20:57;;;;;;;26.65;20.92;;;;;;;;;;6239451;28;20132;-65
2021/10/17 09:23:59;;;;;;;25.38;21.58;;;;;;;;;;6242503;28;20057;-65
2021/10/17 09:27:09;;;;;;;27.40;22.63;;;;;;;;;;6237391;28;20172;-66
2021/10/17 09:30:16;;;;;;;28.88;23.00;;;;;;;;;;6242946;28;20430;-68
2021/10/17 09:33:20;;;;;;;31.38;24.45;;;;;;;;;;6240003;28;20481;-68
2021/10/17 09:36:23;;;;;;;26.88;21.80;;;;;;;;;;6236178;28;20042;-67
2021/10/17 09:39:32;;;;;;;27.67;23.30;;;;;;;;;;6244764;28;20087;-66
2021/10/17 09:42:40;;;;;;;25.35;21.52;;;;;;;;;;6237599;28;20046;-67
2021/10/17 09:45:42;;;;;;;25.52;21.83;;;;;;;;;;6235490;28;20033;-65
2021/10/17 09:48:44;;;;;;;26.42;22.25;;;;;;;;;;6244110;28;20489;-66
2021/10/17 09:51:45;;;;;;;24.20;20.15;;;;;;;;;;6230921;28;20056;-66
2021/10/17 09:54:47;;;;;;;23.33;20.83;;;;;;;;;;6242432;28;20171;-66
2021/10/17 09:57:50;;;;;;;23.65;20.20;;;;;;;;;;6236311;28;20132;-66
2021/10/17 10:00:51;;;;;;;21.60;19.23;;;;;;;;;;6232508;28;20053;-66
2021/10/17 10:03:53;;;;;;;22.23;19.58;;;;;;;;;;6242673;28;20060;-67
2021/10/17 10:06:55;;;;;;;23.35;19.05;;;;;;;;;;6245613;28;20037;-66
2021/10/17 10:09:57;;;;;;;19.73;17.63;;;;;;;;;;6246329;28;20114;-66
2021/10/17 10:13:02;;;;;;;22.42;19.23;;;;;;;;;;6236328;28;20048;-66
2021/10/17 10:16:04;;;;;;;21.50;18.33;;;;;;;;;;6234429;28;20041;-66
2021/10/17 10:19:06;;;;;;;20.58;18.38;;;;;;;;;;6250637;28;20517;-66
2021/10/17 10:22:08;;;;;;;21.43;18.53;;;;;;;;;;6238828;28;20187;-66
2021/10/17 10:25:10;;;;;;;23.88;19.73;;;;;;;;;;6239659;28;20127;-68
2021/10/17 10:28:14;;;;;;;20.35;16.65;;;;;;;;;;6242585;28;20077;-66
2021/10/17 10:31:34;;;;;;;21.52;17.80;;;;;;;;;;6232408;28;20051;-66
2021/10/17 10:35:03;;;;;;;24.00;20.38;;;;;;;;;;6248524;28;22695;-65
2021/10/17 10:38:04;;;;;;;21.95;18.50;;;;;;;;;;6237065;28;20041;-66
2021/10/17 10:41:14;;;;;;;20.65;17.02;;;;;;;;;;6236064;28;20067;-66
2021/10/17 10:44:18;;;;;;;20.30;17.10;;;;;;;;;;6251848;28;20078;-66
2021/10/17 10:47:23;;;;;;;19.02;17.02;;;;;;;;;;6227491;28;20051;-66
2021/10/17 10:50:34;;;;;;;18.35;16.42;;;;;;;;;;6238398;28;21531;-66
2021/10/17 10:53:45;;;;;;;19.52;17.42;;;;;;;;;;6244472;28;20398;-67
2021/10/17 10:56:49;;;;;;;20.33;17.48;;;;;;;;;;6233445;28;20458;-66
2021/10/17 10:59:59;;;;;;;20.10;17.83;;;;;;;;;;6243801;28;20064;-67
2021/10/17 11:03:11;;;;;;;18.58;16.67;;;;;;;;;;6227834;28;20059;-66
2021/10/17 11:06:17;;;;;;;19.60;15.77;;;;;;;;;;6233431;28;20507;-66
2021/10/17 11:09:22;;;;;;;21.10;17.27;;;;;;;;;;6252011;28;20055;-66
2021/10/17 11:12:43;;;;;;;18.17;16.27;;;;;;;;;;6236446;28;20045;-66
2021/10/17 11:15:47;;;;;;;19.73;17.67;;;;;;;;;;6233074;28;20041;-67
2021/10/17 11:18:56;;;;;;;20.17;17.80;;;;;;;;;;6253613;28;20045;-66
2021/10/17 11:21:59;;;;;;;20.50;16.35;;;;;;;;;;6236978;28;20400;-66
2021/10/17 11:25:01;;;;;;;19.83;16.80;;;;;;;;;;6247841;28;20057;-66
2021/10/17 11:28:02;;;;;;;18.27;16.33;;;;;;;;;;6242209;28;20144;-66
2021/10/17 11:31:06;;;;;;;21.00;17.60;;;;;;;;;;6249120;28;20134;-66
2021/10/17 11:34:08;;;;;;;18.63;16.13;;;;;;;;;;6258754;28;20163;-66
2021/10/17 11:37:21;;;;;;;25.00;18.33;;;;;;;;;;6247029;28;20049;-67
2021/10/17 11:40:22;;;;;;;20.70;15.68;;;;;;;;;;6247220;28;20080;-68
2021/10/17 11:43:31;;;;;;;19.88;16.20;;;;;;;;;;6267125;28;20055;-68
2021/10/17 11:46:35;;;;;;;18.80;16.63;;;;;;;;;;6255183;28;20110;-69
2021/10/17 11:49:36;;;;;;;18.67;15.80;;;;;;;;;;6256355;28;20098;-68
2021/10/17 11:52:48;;;;;;;20.37;17.00;;;;;;;;;;6239187;28;20081;-68
2021/10/17 11:55:50;;;;;;;17.33;14.80;;;;;;;;;;6242980;28;20034;-67
2021/10/17 11:58:51;;;;;;;;;;;;;;;;;;6258360;28;20102;-67
2021/10/17 12:01:54;;;;;;;17.63;14.32;;;;;;;;;;6240062;28;19929;-65
2021/10/17 12:04:55;;;;;;;25.27;15.07;;;;;;;;;;6250633;28;20052;-68
2021/10/17 12:07:58;;;;;;;18.80;15.77;;;;;;;;;;6245345;28;20090;-66
2021/10/17 12:11:01;;;;;;;19.48;16.08;;;;;;;;;;6246573;28;20147;-67
2021/10/17 12:14:02;;;;;;;20.80;16.65;;;;;;;;;;6252332;28;20048;-66
2021/10/17 12:17:05;;;;;;;23.50;17.40;;;;;;;;;;6241755;28;20098;-66
2021/10/17 12:20:10;;;;;;;18.13;15.13;;;;;;;;;;6246737;28;20633;-68
2021/10/17 12:23:12;;;;;;;17.52;14.98;;;;;;;;;;6253602;28;20520;-68
2021/10/17 12:26:17;;;;;;;21.38;15.50;;;;;;;;;;6243057;28;20041;-66
2021/10/17 12:29:22;;;;;;;19.80;15.27;;;;;;;;;;6255749;28;20699;-65
2021/10/17 12:32:25;;;;;;;22.20;15.52;;;;;;;;;;6233478;28;20525;-66
2021/10/17 12:35:30;;;;;;;17.77;14.65;;;;;;;;;;6245422;28;20030;-67
2021/10/17 12:38:33;;;;;;;19.98;14.63;;;;;;;;;;6255026;28;20060;-65
2021/10/17 12:41:35;;;;;;;19.02;14.25;;;;;;;;;;6246286;28;20484;-66
2021/10/17 12:44:43;;;;;;;18.27;15.20;;;;;;;;;;6259216;28;20127;-66
2021/10/17 12:47:52;;;;;;;23.35;16.13;;;;;;;;;;6230940;28;20045;-64
2021/10/17 12:50:53;;;;;;;22.17;14.98;;;;;;;;;;6235635;28;20057;-64
2021/10/17 12:54:11;;;;;;;18.00;14.43;;;;;;;;;;6246678;28;20132;-64
2021/10/17 12:57:17;;;;;;;20.10;16.27;;;;;;;;;;6242389;28;20044;-64
2021/10/17 13:00:18;;;;;;;22.75;17.73;;;;;;;;;;6251298;28;20097;-66
2021/10/17 13:03:22;;;;;;;25.13;18.20;;;;;;;;;;6242330;28;20132;-68
2021/10/17 13:06:23;;;;;;;21.98;17.67;;;;;;;;;;6239843;28;20048;-67
2021/10/17 13:09:24;;;;;;;22.95;16.27;;;;;;;;;;6252877;28;20048;-64
2021/10/17 13:12:27;;;;;;;22.42;18.27;;;;;;;;;;6246827;28;20053;-64
2021/10/17 13:15:30;;;;;;;22.60;16.23;;;;;;;;;;6240129;28;20183;-68
2021/10/17 13:18:31;;;;;;;;;;;;;;;;;;6248883;28;20056;-66
2021/10/17 13:21:33;;;;;;;18.98;14.80;;;;;;;;;;6240126;28;19927;-66
2021/10/17 13:24:35;;;;;;;20.23;15.77;;;;;;;;;;6248162;28;20484;-67
2021/10/17 13:27:36;;;;;;;23.00;15.68;;;;;;;;;;6237875;28;20050;-64
2021/10/17 13:30:38;;;;;;;22.15;14.80;;;;;;;;;;6239015;28;20499;-66
2021/10/17 13:33:39;;;;;;;17.52;13.27;;;;;;;;;;6238683;28;20103;-66
2021/10/17 13:36:42;;;;;;;19.08;13.95;;;;;;;;;;6237933;28;20124;-66
2021/10/17 13:39:43;;;;;;;22.48;14.10;;;;;;;;;;6239872;28;20041;-66
2021/10/17 13:42:44;;;;;;;24.63;14.77;;;;;;;;;;6242780;28;20044;-67
2021/10/17 13:45:46;;;;;;;21.02;14.90;;;;;;;;;;6244494;28;20053;-66
2021/10/17 13:48:47;;;;;;;20.98;14.02;;;;;;;;;;6244036;28;20053;-64
2021/10/17 13:51:50;;;;;;;18.48;12.65;;;;;;;;;;6239271;28;20048;-65
2021/10/17 13:54:51;;;;;;;;;;;;;;;;;;6258988;28;20458;-65
2021/10/17 13:57:53;;;;;;;21.45;14.43;;;;;;;;;;6239643;28;20372;-64
2021/10/17 14:00:54;;;;;;;21.48;15.30;;;;;;;;;;6246753;28;20131;-65
2021/10/17 14:03:55;;;;;;;23.30;15.27;;;;;;;;;;6254792;28;20516;-63
2021/10/17 14:06:59;;;;;;;22.17;15.15;;;;;;;;;;6245270;28;20491;-64
2021/10/17 14:10:01;;;;;;;22.77;15.82;;;;;;;;;;6253297;28;20513;-65
2021/10/17 14:13:02;;;;;;;22.38;15.98;;;;;;;;;;6243358;28;20045;-65
2021/10/17 14:16:04;;;;;;;19.83;14.82;;;;;;;;;;6234665;28;20130;-64
2021/10/17 14:19:05;;;;;;;19.30;14.98;;;;;;;;;;6254478;28;20642;-64
2021/10/17 14:22:08;;;;;;;19.45;14.15;;;;;;;;;;6237158;28;20049;-63
2021/10/17 14:25:10;;;;;;;18.27;14.15;;;;;;;;;;6251478;28;20056;-67
2021/10/17 14:28:11;;;;;;;23.33;16.90;;;;;;;;;;6252610;28;20140;-64
2021/10/17 14:31:13;;;;;;;24.85;16.45;;;;;;;;;;6231155;28;20040;-67
2021/10/17 14:34:15;;;;;;;21.70;16.90;;;;;;;;;;6246480;28;20045;-66
2021/10/17 14:37:17;;;;;;;22.33;15.15;;;;;;;;;;6238802;28;20060;-62
2021/10/17 14:40:21;;;;;;;21.30;15.23;;;;;;;;;;6244360;28;20639;-65
2021/10/17 14:43:23;;;;;;;22.73;17.08;;;;;;;;;;6251318;28;20083;-69
2021/10/17 14:46:24;;;;;;;20.60;14.10;;;;;;;;;;6237010;28;20049;-66
2021/10/17 14:49:25;;;;;;;21.02;14.52;;;;;;;;;;6245100;28;20045;-67
2021/10/17 14:52:28;;;;;;;18.33;12.32;;;;;;;;;;6231278;28;20200;-67
2021/10/17 14:55:30;;;;;;;18.92;12.65;;;;;;;;;;6247654;28;20040;-79
2021/10/17 14:58:32;;;;;;;17.58;12.55;;;;;;;;;;6251218;28;20178;-66
2021/10/17 15:01:33;;;;;;;24.05;14.23;;;;;;;;;;6240055;28;20048;-69
2021/10/17 15:04:35;;;;;;;22.95;14.48;;;;;;;;;;6245968;28;20049;-65
2021/10/17 15:07:37;;;;;;;26.80;14.82;;;;;;;;;;6247344;28;20511;-68
2021/10/17 15:10:39;;;;;;;20.65;15.02;;;;;;;;;;6244094;28;20266;-70
2021/10/17 15:13:40;;;;;;;22.23;14.25;;;;;;;;;;6255849;28;20883;-64
2021/10/17 15:16:42;;;;;;;20.30;13.88;;;;;;;;;;6231415;28;20045;-65
2021/10/17 15:19:43;;;;;;;24.15;14.60;;;;;;;;;;6242620;28;20085;-65
2021/10/17 15:22:46;;;;;;;18.60;13.73;;;;;;;;;;6234450;28;20132;-65
2021/10/17 15:25:47;;;;;;;;;;;;;;;;;;6243196;28;20057;-65
2021/10/17 15:28:48;;;;;;;20.73;13.13;;;;;;;;;;6251810;28;19952;-65
2021/10/17 15:31:50;;;;;;;17.55;12.25;;;;;;;;;;6235474;28;20558;-65
2021/10/17 15:34:51;;;;;;;22.50;13.57;;;;;;;;;;6249420;28;20089;-66
2021/10/17 15:37:54;;;;;;;20.42;12.68;;;;;;;;;;6235247;28;20087;-65
2021/10/17 15:40:56;;;;;;;20.85;12.02;;;;;;;;;;6239283;28;20049;-65
2021/10/17 15:43:58;;;;;;;18.95;11.10;;;;;;;;;;6248956;28;20038;-65
2021/10/17 15:46:59;;;;;;;19.08;11.50;;;;;;;;;;6231326;28;20411;-67
2021/10/17 15:50:00;;;;;;;22.85;12.18;;;;;;;;;;6249381;28;20357;-65
2021/10/17 15:53:03;;;;;;;18.90;11.82;;;;;;;;;;6242333;28;20052;-65
2021/10/17 15:56:05;;;;;;;18.67;11.10;;;;;;;;;;6235878;28;20033;-65
2021/10/17 15:59:07;;;;;;;21.83;12.40;;;;;;;;;;6242905;28;20436;-65
2021/10/17 16:02:08;;;;;;;20.60;11.68;;;;;;;;;;6231414;28;20128;-65
2021/10/17 16:05:10;;;;;;;23.10;11.70;;;;;;;;;;6237850;28;20069;-64
2021/10/17 16:08:13;;;;;;;22.60;11.48;;;;;;;;;;6251893;28;20048;-67
2021/10/17 16:11:14;;;;;;;22.02;11.38;;;;;;;;;;6248746;28;20041;-64
2021/10/17 16:14:16;;;;;;;21.20;11.57;;;;;;;;;;6260206;28;20467;-65
2021/10/17 16:17:17;;;;;;;27.30;13.45;;;;;;;;;;6241041;28;20092;-64
2021/10/17 16:20:19;;;;;;;25.95;13.23;;;;;;;;;;6251643;28;20126;-64
2021/10/17 16:23:25;;;;;;;24.13;13.48;;;;;;;;;;6253434;28;20140;-64
2021/10/17 16:26:26;;;;;;;26.08;13.20;;;;;;;;;;6252343;28;20122;-64
2021/10/17 16:29:28;;;;;;;22.65;12.98;;;;;;;;;;6257056;28;20124;-64
2021/10/17 16:32:33;;;;;;;27.02;14.23;;;;;;;;;;6234880;28;20041;-64
2021/10/17 16:35:34;;;;;;;28.05;14.43;;;;;;;;;;6243831;28;20037;-66
2021/10/17 16:38:37;;;;;;;26.45;14.15;;;;;;;;;;6250259;28;20106;-66
2021/10/17 16:41:39;;;;;;;27.02;15.00;;;;;;;;;;6249411;28;20059;-65
2021/10/17 16:44:41;;;;;;;30.73;14.88;;;;;;;;;;6257785;28;20041;-63
2021/10/17 16:47:42;;;;;;;27.45;14.38;;;;;;;;;;6238811;28;20063;-64
2021/10/17 16:50:43;;;;;;;27.17;15.20;;;;;;;;;;6241648;28;20042;-64
2021/10/17 16:53:47;;;;;;;30.30;15.02;;;;;;;;;;6256291;28;20132;-64
2021/10/17 16:56:48;;;;;;;;;;;;;;;;;;6238083;28;20053;-64
2021/10/17 16:59:49;;;;;;;31.98;14.70;;;;;;;;;;6251095;28;20456;-64
2021/10/17 17:02:51;;;;;;;31.48;14.88;;;;;;;;;;6232419;28;20148;-66
2021/10/17 17:05:52;;;;;;;27.33;15.38;;;;;;;;;;6243474;28;20041;-65
2021/10/17 17:08:56;;;;;;;30.27;15.80;;;;;;;;;;6256271;28;20132;-63
2021/10/17 17:11:57;;;;;;;31.38;16.40;;;;;;;;;;6242996;28;20056;-67
2021/10/17 17:14:59;;;;;;;31.00;15.65;;;;;;;;;;6257168;28;20152;-66
2021/10/17 17:18:01;;;;;;;36.92;16.80;;;;;;;;;;6235034;28;20086;-66
2021/10/17 17:21:02;;;;;;;42.65;18.73;;;;;;;;;;6239414;28;20451;-64
2021/10/17 17:24:08;;;;;;;37.30;16.63;;;;;;;;;;6248545;28;20100;-66
2021/10/17 17:27:10;;;;;;;35.38;16.27;;;;;;;;;;6240059;28;20084;-66
2021/10/17 17:30:12;;;;;;;30.17;14.63;;;;;;;;;;6248624;28;20041;-67
2021/10/17 17:33:13;;;;;;;34.38;16.02;;;;;;;;;;6244127;28;20138;-66
2021/10/17 17:36:15;;;;;;;27.95;14.32;;;;;;;;;;6236973;28;20041;-63
2021/10/17 17:39:17;;;;;;;30.98;16.55;;;;;;;;;;6249606;28;20136;-67
2021/10/17 17:42:19;;;;;;;33.13;16.10;;;;;;;;;;6245562;28;20041;-66
2021/10/17 17:45:20;;;;;;;29.63;14.98;;;;;;;;;;6241248;28;20713;-68